Kastav — 9AA6417 — position and weather

sailwx.info

Track history (hours):
 
Tides and Currents Weather Stations Pressure Air Temp Water Temp Dewpoint Dewpoint Depression Visibility Wind Speed Wind Dir Waves Ship Positions

Kastav

Last reported at 2015-Aug-28 06:33 UTC. Time now 2015-Aug-28 12:48 UTC.
Position N 43°16' E 034°12'.

Length 195 m; draft 10.5 m.

Type: Ship. MMSI: 238257000.

Date/timePositionNaut miles runAvg speedWind from/ knotsBaromVisibWave heightAir tempDewpointWater temp
2015-Aug-28 06:33N 43°16' E 034°12'1212.2
2015-Aug-28 05:33N 43°22' E 034°28'1211.9
2015-Aug-28 04:33N 43°27' E 034°42'1212.2
2015-Aug-28 03:33N 43°33' E 034°57'1212.2
2015-Aug-28 02:33N 43°38' E 035°12'1212.2
2015-Aug-28 01:33N 43°44' E 035°27'1212.0
2015-Aug-28 00:33N 43°49' E 035°42'1212.1
2015-Aug-27 23:33N 43°55' E 035°57'1212.3
2015-Aug-27 22:33N 44°00' E 036°12'1212.0
2015-Aug-27 21:33N 44°06' E 036°27'1212.2
2015-Aug-27 20:33N 44°11' E 036°42'1212.1
2015-Aug-27 19:33N 44°17' E 036°57'  
2015-Aug-22 17:04N 44°25' E 037°37'0 0.8
2015-Aug-22 16:33N 44°25' E 037°37'1 0.9
2015-Aug-22 15:33N 44°24' E 037°38'1 1.1
2015-Aug-22 14:33N 44°24' E 037°39'1 1.2
2015-Aug-22 13:33N 44°23' E 037°41'1 1.2
2015-Aug-22 12:30N 44°22' E 037°42'1 1.0
2015-Aug-22 11:33N 44°22' E 037°44'1 0.9
2015-Aug-22 10:33N 44°22' E 037°45'1 0.9
2015-Aug-22 09:33N 44°22' E 037°46'1 0.5
2015-Aug-22 08:33N 44°23' E 037°47'1110.6
2015-Aug-22 07:33N 44°16' E 037°35'7 0.4
2015-Aug-21 14:21N 44°15' E 037°25'1 0.9
2015-Aug-21 13:23N 44°16' E 037°26'1 0.9
2015-Aug-21 12:32N 44°16' E 037°27'2 1.0
2015-Aug-21 10:26N 44°17' E 037°30'1 1.0
2015-Aug-21 09:22N 44°17' E 037°31'1 0.9
2015-Aug-21 08:14N 44°17' E 037°33'6 7.2
2015-Aug-21 07:23N 44°17' E 037°24'5 0.3
2015-Aug-20 16:32N 44°18' E 037°31'1 1.4
2015-Aug-20 15:26N 44°19' E 037°33'1 1.3
2015-Aug-20 14:30N 44°19' E 037°34'1 1.3
2015-Aug-20 13:33N 44°20' E 037°36'1 1.3
2015-Aug-20 12:33N 44°20' E 037°37'1 1.3
2015-Aug-20 11:34N 44°21' E 037°39'1 1.2
2015-Aug-20 10:33N 44°21' E 037°40'1 0.8
2015-Aug-20 09:31N 44°22' E 037°41'6 6.6
2015-Aug-20 08:32N 44°23' E 037°32'1 1.0
2015-Aug-20 07:33N 44°23' E 037°34'1 1.1
2015-Aug-20 06:33N 44°23' E 037°35'1 1.1
2015-Aug-20 05:33N 44°24' E 037°37'1 1.1
2015-Aug-20 04:33N 44°24' E 037°38'1 0.9
2015-Aug-20 03:33N 44°24' E 037°39'4 4.2
2015-Aug-20 02:33N 44°23' E 037°33'4 1.9
2015-Aug-20 00:31N 44°20' E 037°30'1 1.2
2015-Aug-19 23:30N 44°21' E 037°31'1 1.2
2015-Aug-19 22:33N 44°21' E 037°33'1 1.2
2015-Aug-19 21:32N 44°22' E 037°34'1 1.3
2015-Aug-19 20:28N 44°22' E 037°36'1 1.3
2015-Aug-19 19:33N 44°23' E 037°37'1 1.1
2015-Aug-19 18:34N 44°24' E 037°39'1 1.1
2015-Aug-19 17:33N 44°24' E 037°40'1 1.0
2015-Aug-19 16:34N 44°25' E 037°41'1 1.0
2015-Aug-19 15:34N 44°25' E 037°42'1 0.8
2015-Aug-19 14:33N 44°26' E 037°43'1 0.8
2015-Aug-19 13:34N 44°26' E 037°44'1 0.8
2015-Aug-19 12:34N 44°26' E 037°45'1 0.7
2015-Aug-19 11:33N 44°26' E 037°46'1 0.6
2015-Aug-19 10:34N 44°27' E 037°47'4 4.0
2015-Aug-19 09:33N 44°30' E 037°45'8 7.9
2015-Aug-19 08:33N 44°26' E 037°35'1211.6
2015-Aug-19 07:33N 44°21' E 037°21'13211.6
2015-Aug-18 20:06N 43°20' E 034°38'  
Track history (hours):
 
Tides and Currents Weather Stations Pressure Air Temp Water Temp Dewpoint Dewpoint Depression Visibility Wind Speed Wind Dir Waves Ship Positions

Kastav

Last reported at 2015-Aug-28 06:33 UTC. Time now 2015-Aug-28 12:48 UTC.
Position N 43°16' E 034°12'.

Length 195 m; draft 10.5 m.

Type: Ship. MMSI: 238257000.

Date/timePositionNaut miles runAvg speedWind from/ knotsBaromVisibWave heightAir tempDewpointWater temp
2015-Aug-28 06:33N 43°16' E 034°12'1212.2
2015-Aug-28 05:33N 43°22' E 034°28'1211.9
2015-Aug-28 04:33N 43°27' E 034°42'1212.2
2015-Aug-28 03:33N 43°33' E 034°57'1212.2
2015-Aug-28 02:33N 43°38' E 035°12'1212.2
2015-Aug-28 01:33N 43°44' E 035°27'1212.0
2015-Aug-28 00:33N 43°49' E 035°42'1212.1
2015-Aug-27 23:33N 43°55' E 035°57'1212.3
2015-Aug-27 22:33N 44°00' E 036°12'1212.0
2015-Aug-27 21:33N 44°06' E 036°27'1212.2
2015-Aug-27 20:33N 44°11' E 036°42'1212.1
2015-Aug-27 19:33N 44°17' E 036°57'  
2015-Aug-22 17:04N 44°25' E 037°37'0 0.8
2015-Aug-22 16:33N 44°25' E 037°37'1 0.9
2015-Aug-22 15:33N 44°24' E 037°38'1 1.1
2015-Aug-22 14:33N 44°24' E 037°39'1 1.2
2015-Aug-22 13:33N 44°23' E 037°41'1 1.2
2015-Aug-22 12:30N 44°22' E 037°42'1 1.0
2015-Aug-22 11:33N 44°22' E 037°44'1 0.9
2015-Aug-22 10:33N 44°22' E 037°45'1 0.9
2015-Aug-22 09:33N 44°22' E 037°46'1 0.5
2015-Aug-22 08:33N 44°23' E 037°47'1110.6
2015-Aug-22 07:33N 44°16' E 037°35'7 0.4
2015-Aug-21 14:21N 44°15' E 037°25'1 0.9
2015-Aug-21 13:23N 44°16' E 037°26'1 0.9
2015-Aug-21 12:32N 44°16' E 037°27'2 1.0
2015-Aug-21 10:26N 44°17' E 037°30'1 1.0
2015-Aug-21 09:22N 44°17' E 037°31'1 0.9
2015-Aug-21 08:14N 44°17' E 037°33'6 7.2
2015-Aug-21 07:23N 44°17' E 037°24'5 0.3
2015-Aug-20 16:32N 44°18' E 037°31'1 1.4
2015-Aug-20 15:26N 44°19' E 037°33'1 1.3
2015-Aug-20 14:30N 44°19' E 037°34'1 1.3
2015-Aug-20 13:33N 44°20' E 037°36'1 1.3
2015-Aug-20 12:33N 44°20' E 037°37'1 1.3
2015-Aug-20 11:34N 44°21' E 037°39'1 1.2
2015-Aug-20 10:33N 44°21' E 037°40'1 0.8
2015-Aug-20 09:31N 44°22' E 037°41'6 6.6
2015-Aug-20 08:32N 44°23' E 037°32'1 1.0
2015-Aug-20 07:33N 44°23' E 037°34'1 1.1
2015-Aug-20 06:33N 44°23' E 037°35'1 1.1
2015-Aug-20 05:33N 44°24' E 037°37'1 1.1
2015-Aug-20 04:33N 44°24' E 037°38'1 0.9
2015-Aug-20 03:33N 44°24' E 037°39'4 4.2
2015-Aug-20 02:33N 44°23' E 037°33'4 1.9
2015-Aug-20 00:31N 44°20' E 037°30'1 1.2
2015-Aug-19 23:30N 44°21' E 037°31'1 1.2
2015-Aug-19 22:33N 44°21' E 037°33'1 1.2
2015-Aug-19 21:32N 44°22' E 037°34'1 1.3
2015-Aug-19 20:28N 44°22' E 037°36'1 1.3
2015-Aug-19 19:33N 44°23' E 037°37'1 1.1
2015-Aug-19 18:34N 44°24' E 037°39'1 1.1
2015-Aug-19 17:33N 44°24' E 037°40'1 1.0
2015-Aug-19 16:34N 44°25' E 037°41'1 1.0
2015-Aug-19 15:34N 44°25' E 037°42'1 0.8
2015-Aug-19 14:33N 44°26' E 037°43'1 0.8
2015-Aug-19 13:34N 44°26' E 037°44'1 0.8
2015-Aug-19 12:34N 44°26' E 037°45'1 0.7
2015-Aug-19 11:33N 44°26' E 037°46'1 0.6
2015-Aug-19 10:34N 44°27' E 037°47'4 4.0
2015-Aug-19 09:33N 44°30' E 037°45'8 7.9
2015-Aug-19 08:33N 44°26' E 037°35'1211.6
2015-Aug-19 07:33N 44°21' E 037°21'13211.6
2015-Aug-18 20:06N 43°20' E 034°38'  

Dump ship's entire track history